sensor_id;sensor_type;location;lat;lon;timestamp;P1;durP1;ratioP1;P2;durP2;ratioP2
32746;SDS011;19118;50.860;13.662;2022-09-27T00:02:22;1.23;;;0.85;;
32746;SDS011;19118;50.860;13.662;2022-09-27T00:07:22;4.67;;;1.20;;
32746;SDS011;19118;50.860;13.662;2022-09-27T00:12:23;2.27;;;1.17;;
32746;SDS011;19118;50.860;13.662;2022-09-27T00:17:23;3.50;;;1.00;;
32746;SDS011;19118;50.860;13.662;2022-09-27T00:22:24;3.15;;;1.02;;
32746;SDS011;19118;50.860;13.662;2022-09-27T00:27:26;4.97;;;1.00;;
32746;SDS011;19118;50.860;13.662;2022-09-27T00:32:27;4.85;;;1.10;;
32746;SDS011;19118;50.860;13.662;2022-09-27T00:37:27;2.17;;;1.13;;
32746;SDS011;19118;50.860;13.662;2022-09-27T00:42:27;3.80;;;1.38;;
32746;SDS011;19118;50.860;13.662;2022-09-27T00:47:35;3.03;;;1.60;;
32746;SDS011;19118;50.860;13.662;2022-09-27T00:52:43;7.05;;;1.92;;
32746;SDS011;19118;50.860;13.662;2022-09-27T00:57:47;3.25;;;1.40;;
32746;SDS011;19118;50.860;13.662;2022-09-27T01:02:50;2.10;;;1.08;;
32746;SDS011;19118;50.860;13.662;2022-09-27T01:07:53;1.88;;;1.13;;
32746;SDS011;19118;50.860;13.662;2022-09-27T01:13:31;5.25;;;1.50;;
32746;SDS011;19118;50.860;13.662;2022-09-27T01:29:11;1.75;;;0.98;;
32746;SDS011;19118;50.860;13.662;2022-09-27T01:45:31;3.80;;;1.80;;
32746;SDS011;19118;50.860;13.662;2022-09-27T01:50:52;5.38;;;2.00;;
32746;SDS011;19118;50.860;13.662;2022-09-27T01:55:56;2.58;;;1.90;;
32746;SDS011;19118;50.860;13.662;2022-09-27T02:01:18;4.72;;;2.60;;
32746;SDS011;19118;50.860;13.662;2022-09-27T02:06:24;9.80;;;3.00;;
32746;SDS011;19118;50.860;13.662;2022-09-27T02:11:48;5.38;;;3.38;;
32746;SDS011;19118;50.860;13.662;2022-09-27T02:16:58;5.80;;;2.97;;
32746;SDS011;19118;50.860;13.662;2022-09-27T02:22:09;6.55;;;3.58;;
32746;SDS011;19118;50.860;13.662;2022-09-27T02:27:17;11.20;;;4.20;;
32746;SDS011;19118;50.860;13.662;2022-09-27T02:32:26;5.80;;;3.88;;
32746;SDS011;19118;50.860;13.662;2022-09-27T02:37:27;5.68;;;4.07;;
32746;SDS011;19118;50.860;13.662;2022-09-27T02:42:27;11.40;;;5.78;;
32746;SDS011;19118;50.860;13.662;2022-09-27T02:53:05;8.23;;;5.65;;
32746;SDS011;19118;50.860;13.662;2022-09-27T02:58:34;8.98;;;5.88;;
32746;SDS011;19118;50.860;13.662;2022-09-27T03:04:13;8.40;;;5.93;;
32746;SDS011;19118;50.860;13.662;2022-09-27T03:09:23;9.90;;;7.05;;
32746;SDS011;19118;50.860;13.662;2022-09-27T03:14:28;8.13;;;5.45;;
32746;SDS011;19118;50.860;13.662;2022-09-27T03:19:37;11.70;;;6.30;;
32746;SDS011;19118;50.860;13.662;2022-09-27T03:24:56;11.38;;;6.78;;
32746;SDS011;19118;50.860;13.662;2022-09-27T03:29:57;10.05;;;5.90;;
32746;SDS011;19118;50.860;13.662;2022-09-27T03:34:58;11.38;;;7.05;;
32746;SDS011;19118;50.860;13.662;2022-09-27T03:39:59;9.63;;;7.50;;
32746;SDS011;19118;50.860;13.662;2022-09-27T03:44:59;10.35;;;6.50;;
32746;SDS011;19118;50.860;13.662;2022-09-27T03:50:00;8.93;;;6.88;;
32746;SDS011;19118;50.860;13.662;2022-09-27T03:55:00;16.67;;;6.38;;
32746;SDS011;19118;50.860;13.662;2022-09-27T04:00:01;9.32;;;6.65;;
32746;SDS011;19118;50.860;13.662;2022-09-27T04:05:11;9.02;;;6.78;;
32746;SDS011;19118;50.860;13.662;2022-09-27T04:10:12;10.15;;;6.70;;
32746;SDS011;19118;50.860;13.662;2022-09-27T04:15:13;9.15;;;6.50;;
32746;SDS011;19118;50.860;13.662;2022-09-27T04:20:22;7.47;;;6.60;;
32746;SDS011;19118;50.860;13.662;2022-09-27T04:25:23;7.82;;;6.43;;
32746;SDS011;19118;50.860;13.662;2022-09-27T04:30:24;12.15;;;6.40;;
32746;SDS011;19118;50.860;13.662;2022-09-27T04:36:01;11.23;;;7.43;;
32746;SDS011;19118;50.860;13.662;2022-09-27T04:41:33;10.50;;;8.13;;
32746;SDS011;19118;50.860;13.662;2022-09-27T04:46:35;10.95;;;8.40;;
32746;SDS011;19118;50.860;13.662;2022-09-27T04:51:35;12.15;;;8.02;;
32746;SDS011;19118;50.860;13.662;2022-09-27T04:56:37;10.60;;;7.03;;
32746;SDS011;19118;50.860;13.662;2022-09-27T05:01:38;10.38;;;6.60;;
32746;SDS011;19118;50.860;13.662;2022-09-27T05:06:46;8.98;;;6.25;;
32746;SDS011;19118;50.860;13.662;2022-09-27T05:11:59;7.13;;;5.82;;
32746;SDS011;19118;50.860;13.662;2022-09-27T05:17:18;7.23;;;6.33;;
32746;SDS011;19118;50.860;13.662;2022-09-27T05:22:20;9.43;;;5.60;;
32746;SDS011;19118;50.860;13.662;2022-09-27T05:27:21;8.27;;;5.90;;
32746;SDS011;19118;50.860;13.662;2022-09-27T05:32:21;10.20;;;5.97;;
32746;SDS011;19118;50.860;13.662;2022-09-27T05:37:28;9.18;;;6.47;;
32746;SDS011;19118;50.860;13.662;2022-09-27T05:42:33;13.68;;;8.07;;
32746;SDS011;19118;50.860;13.662;2022-09-27T05:47:34;17.08;;;10.20;;
32746;SDS011;19118;50.860;13.662;2022-09-27T05:52:35;23.30;;;13.93;;
32746;SDS011;19118;50.860;13.662;2022-09-27T05:57:36;10.77;;;8.57;;
32746;SDS011;19118;50.860;13.662;2022-09-27T06:02:40;10.25;;;8.20;;
32746;SDS011;19118;50.860;13.662;2022-09-27T06:07:59;10.85;;;7.55;;
32746;SDS011;19118;50.860;13.662;2022-09-27T06:13:12;9.93;;;6.68;;
32746;SDS011;19118;50.860;13.662;2022-09-27T06:18:15;6.45;;;5.30;;
32746;SDS011;19118;50.860;13.662;2022-09-27T06:23:19;6.65;;;5.20;;
32746;SDS011;19118;50.860;13.662;2022-09-27T06:28:22;7.43;;;5.07;;
32746;SDS011;19118;50.860;13.662;2022-09-27T06:33:28;4.93;;;4.28;;
32746;SDS011;19118;50.860;13.662;2022-09-27T06:38:30;3.08;;;2.70;;
32746;SDS011;19118;50.860;13.662;2022-09-27T06:43:52;3.80;;;3.10;;
32746;SDS011;19118;50.860;13.662;2022-09-27T06:49:11;5.57;;;3.45;;
32746;SDS011;19118;50.860;13.662;2022-09-27T06:54:13;3.35;;;3.03;;
32746;SDS011;19118;50.860;13.662;2022-09-27T06:59:14;3.15;;;2.30;;
32746;SDS011;19118;50.860;13.662;2022-09-27T07:04:52;4.35;;;2.35;;
32746;SDS011;19118;50.860;13.662;2022-09-27T07:10:16;2.28;;;1.70;;
32746;SDS011;19118;50.860;13.662;2022-09-27T07:15:17;1.83;;;1.60;;
32746;SDS011;19118;50.860;13.662;2022-09-27T07:20:23;1.58;;;1.40;;
32746;SDS011;19118;50.860;13.662;2022-09-27T07:25:24;1.42;;;1.25;;
32746;SDS011;19118;50.860;13.662;2022-09-27T07:30:25;1.98;;;1.40;;
32746;SDS011;19118;50.860;13.662;2022-09-27T07:35:25;2.63;;;1.00;;
32746;SDS011;19118;50.860;13.662;2022-09-27T07:40:27;1.15;;;0.95;;
32746;SDS011;19118;50.860;13.662;2022-09-27T07:45:27;1.13;;;0.70;;
32746;SDS011;19118;50.860;13.662;2022-09-27T07:50:54;1.13;;;0.73;;
32746;SDS011;19118;50.860;13.662;2022-09-27T07:56:13;0.97;;;0.77;;
32746;SDS011;19118;50.860;13.662;2022-09-27T08:01:14;1.08;;;0.70;;
32746;SDS011;19118;50.860;13.662;2022-09-27T08:06:15;0.90;;;0.50;;
32746;SDS011;19118;50.860;13.662;2022-09-27T08:11:17;0.65;;;0.50;;
32746;SDS011;19118;50.860;13.662;2022-09-27T08:16:19;0.65;;;0.50;;
32746;SDS011;19118;50.860;13.662;2022-09-27T08:21:39;0.70;;;0.43;;
32746;SDS011;19118;50.860;13.662;2022-09-27T08:26:49;1.33;;;0.52;;
32746;SDS011;19118;50.860;13.662;2022-09-27T08:32:01;0.57;;;0.43;;
32746;SDS011;19118;50.860;13.662;2022-09-27T08:37:02;2.92;;;0.38;;
32746;SDS011;19118;50.860;13.662;2022-09-27T08:47:24;0.60;;;0.50;;
32746;SDS011;19118;50.860;13.662;2022-09-27T08:52:34;0.77;;;0.70;;
32746;SDS011;19118;50.860;13.662;2022-09-27T08:57:47;1.88;;;0.60;;
32746;SDS011;19118;50.860;13.662;2022-09-27T09:13:22;5.10;;;0.80;;
32746;SDS011;19118;50.860;13.662;2022-09-27T09:18:53;1.75;;;0.50;;
32746;SDS011;19118;50.860;13.662;2022-09-27T09:29:19;0.40;;;0.33;;
32746;SDS011;19118;50.860;13.662;2022-09-27T09:34:34;1.67;;;0.40;;
32746;SDS011;19118;50.860;13.662;2022-09-27T09:39:46;0.75;;;0.40;;
32746;SDS011;19118;50.860;13.662;2022-09-27T09:50:19;0.95;;;0.30;;
32746;SDS011;19118;50.860;13.662;2022-09-27T09:55:27;0.70;;;0.50;;
32746;SDS011;19118;50.860;13.662;2022-09-27T10:00:33;2.70;;;0.70;;
32746;SDS011;19118;50.860;13.662;2022-09-27T10:05:34;0.77;;;0.40;;
32746;SDS011;19118;50.860;13.662;2022-09-27T10:10:38;2.40;;;0.40;;
32746;SDS011;19118;50.860;13.662;2022-09-27T10:16:15;1.08;;;0.50;;
32746;SDS011;19118;50.860;13.662;2022-09-27T10:21:20;3.72;;;0.35;;
32746;SDS011;19118;50.860;13.662;2022-09-27T10:26:25;1.13;;;0.20;;
32746;SDS011;19118;50.860;13.662;2022-09-27T10:31:27;1.30;;;0.38;;
32746;SDS011;19118;50.860;13.662;2022-09-27T10:36:45;1.10;;;0.50;;
32746;SDS011;19118;50.860;13.662;2022-09-27T10:42:02;0.57;;;0.20;;
32746;SDS011;19118;50.860;13.662;2022-09-27T10:47:10;0.35;;;0.20;;
32746;SDS011;19118;50.860;13.662;2022-09-27T10:52:26;0.60;;;0.20;;
32746;SDS011;19118;50.860;13.662;2022-09-27T10:57:27;0.75;;;0.10;;
32746;SDS011;19118;50.860;13.662;2022-09-27T11:02:31;0.28;;;0.25;;
32746;SDS011;19118;50.860;13.662;2022-09-27T11:07:55;0.10;;;0.10;;
32746;SDS011;19118;50.860;13.662;2022-09-27T11:13:16;0.65;;;0.30;;
32746;SDS011;19118;50.860;13.662;2022-09-27T11:28:57;3.05;;;0.52;;
32746;SDS011;19118;50.860;13.662;2022-09-27T12:13:05;2.22;;;0.60;;
32746;SDS011;19118;50.860;13.662;2022-09-27T12:18:25;3.10;;;0.40;;
32746;SDS011;19118;50.860;13.662;2022-09-27T12:23:44;0.77;;;0.57;;
32746;SDS011;19118;50.860;13.662;2022-09-27T12:29:14;2.80;;;0.90;;
32746;SDS011;19118;50.860;13.662;2022-09-27T12:39:24;0.50;;;0.40;;
32746;SDS011;19118;50.860;13.662;2022-09-27T12:44:45;0.30;;;0.30;;
32746;SDS011;19118;50.860;13.662;2022-09-27T12:55:35;0.38;;;0.30;;
32746;SDS011;19118;50.860;13.662;2022-09-27T13:00:57;1.27;;;0.40;;
32746;SDS011;19118;50.860;13.662;2022-09-27T13:11:57;0.63;;;0.30;;
32746;SDS011;19118;50.860;13.662;2022-09-27T13:17:07;0.30;;;0.30;;
32746;SDS011;19118;50.860;13.662;2022-09-27T13:22:37;1.55;;;0.40;;
32746;SDS011;19118;50.860;13.662;2022-09-27T13:27:53;0.17;;;0.17;;
32746;SDS011;19118;50.860;13.662;2022-09-27T13:33:19;0.50;;;0.50;;
32746;SDS011;19118;50.860;13.662;2022-09-27T13:38:30;0.85;;;0.50;;
32746;SDS011;19118;50.860;13.662;2022-09-27T13:49:18;2.78;;;0.60;;
32746;SDS011;19118;50.860;13.662;2022-09-27T14:00:00;1.58;;;0.30;;
32746;SDS011;19118;50.860;13.662;2022-09-27T14:05:21;0.32;;;0.32;;
32746;SDS011;19118;50.860;13.662;2022-09-27T14:10:27;1.23;;;0.40;;
32746;SDS011;19118;50.860;13.662;2022-09-27T14:15:29;0.82;;;0.57;;
32746;SDS011;19118;50.860;13.662;2022-09-27T14:25:55;0.45;;;0.40;;
32746;SDS011;19118;50.860;13.662;2022-09-27T14:31:14;1.05;;;0.40;;
32746;SDS011;19118;50.860;13.662;2022-09-27T14:36:41;2.85;;;0.60;;
32746;SDS011;19118;50.860;13.662;2022-09-27T14:42:16;0.30;;;0.30;;
32746;SDS011;19118;50.860;13.662;2022-09-27T14:47:21;6.95;;;0.65;;
32746;SDS011;19118;50.860;13.662;2022-09-27T14:52:24;0.40;;;0.40;;
32746;SDS011;19118;50.860;13.662;2022-09-27T14:57:30;1.30;;;0.60;;
32746;SDS011;19118;50.860;13.662;2022-09-27T15:02:33;1.10;;;0.40;;
32746;SDS011;19118;50.860;13.662;2022-09-27T15:07:35;2.35;;;0.40;;
32746;SDS011;19118;50.860;13.662;2022-09-27T15:12:36;5.00;;;0.77;;
32746;SDS011;19118;50.860;13.662;2022-09-27T15:17:41;0.63;;;0.50;;
32746;SDS011;19118;50.860;13.662;2022-09-27T15:22:43;0.68;;;0.65;;
32746;SDS011;19118;50.860;13.662;2022-09-27T15:28:25;1.95;;;0.85;;
32746;SDS011;19118;50.860;13.662;2022-09-27T15:33:19;2.25;;;0.90;;
32746;SDS011;19118;50.860;13.662;2022-09-27T15:38:24;3.15;;;1.10;;
32746;SDS011;19118;50.860;13.662;2022-09-27T15:48:34;3.45;;;0.77;;
32746;SDS011;19118;50.860;13.662;2022-09-27T15:53:39;3.65;;;1.27;;
32746;SDS011;19118;50.860;13.662;2022-09-27T15:58:42;1.77;;;0.98;;
32746;SDS011;19118;50.860;13.662;2022-09-27T16:03:42;4.40;;;1.20;;
32746;SDS011;19118;50.860;13.662;2022-09-27T16:08:43;1.63;;;0.85;;
32746;SDS011;19118;50.860;13.662;2022-09-27T16:13:44;3.55;;;0.80;;
32746;SDS011;19118;50.860;13.662;2022-09-27T16:18:45;1.73;;;1.02;;
32746;SDS011;19118;50.860;13.662;2022-09-27T16:23:45;2.72;;;1.40;;
32746;SDS011;19118;50.860;13.662;2022-09-27T16:28:45;1.70;;;0.90;;
32746;SDS011;19118;50.860;13.662;2022-09-27T16:33:49;1.10;;;0.83;;
32746;SDS011;19118;50.860;13.662;2022-09-27T16:38:50;1.90;;;0.90;;
32746;SDS011;19118;50.860;13.662;2022-09-27T16:43:51;1.63;;;0.80;;
32746;SDS011;19118;50.860;13.662;2022-09-27T16:48:51;3.90;;;1.73;;
32746;SDS011;19118;50.860;13.662;2022-09-27T16:53:51;5.07;;;2.30;;
32746;SDS011;19118;50.860;13.662;2022-09-27T16:58:52;5.22;;;2.55;;
32746;SDS011;19118;50.860;13.662;2022-09-27T17:03:52;10.25;;;4.50;;
32746;SDS011;19118;50.860;13.662;2022-09-27T17:08:53;3.88;;;1.83;;
32746;SDS011;19118;50.860;13.662;2022-09-27T17:13:53;17.30;;;6.17;;
32746;SDS011;19118;50.860;13.662;2022-09-27T17:18:54;23.88;;;6.10;;
32746;SDS011;19118;50.860;13.662;2022-09-27T17:23:55;17.80;;;5.67;;
32746;SDS011;19118;50.860;13.662;2022-09-27T17:28:55;16.73;;;5.22;;
32746;SDS011;19118;50.860;13.662;2022-09-27T17:33:59;7.63;;;1.70;;
32746;SDS011;19118;50.860;13.662;2022-09-27T17:39:00;4.80;;;1.70;;
32746;SDS011;19118;50.860;13.662;2022-09-27T17:44:01;9.73;;;2.72;;
32746;SDS011;19118;50.860;13.662;2022-09-27T17:49:02;11.20;;;3.28;;
32746;SDS011;19118;50.860;13.662;2022-09-27T17:54:22;5.45;;;2.13;;
32746;SDS011;19118;50.860;13.662;2022-09-27T17:59:25;4.47;;;2.08;;
32746;SDS011;19118;50.860;13.662;2022-09-27T18:04:25;7.72;;;2.40;;
32746;SDS011;19118;50.860;13.662;2022-09-27T18:09:26;4.20;;;1.60;;
32746;SDS011;19118;50.860;13.662;2022-09-27T18:14:27;2.92;;;1.13;;
32746;SDS011;19118;50.860;13.662;2022-09-27T18:19:27;6.83;;;1.60;;
32746;SDS011;19118;50.860;13.662;2022-09-27T18:24:27;2.57;;;1.60;;
32746;SDS011;19118;50.860;13.662;2022-09-27T18:29:28;1.30;;;0.95;;
32746;SDS011;19118;50.860;13.662;2022-09-27T18:34:28;2.00;;;1.00;;
32746;SDS011;19118;50.860;13.662;2022-09-27T18:39:29;6.60;;;1.02;;
32746;SDS011;19118;50.860;13.662;2022-09-27T18:44:29;2.22;;;1.00;;
32746;SDS011;19118;50.860;13.662;2022-09-27T18:49:29;1.35;;;0.95;;
32746;SDS011;19118;50.860;13.662;2022-09-27T18:54:30;2.97;;;1.60;;
32746;SDS011;19118;50.860;13.662;2022-09-27T18:59:30;4.20;;;1.20;;
32746;SDS011;19118;50.860;13.662;2022-09-27T19:04:31;2.07;;;1.10;;
32746;SDS011;19118;50.860;13.662;2022-09-27T19:09:31;1.50;;;1.03;;
32746;SDS011;19118;50.860;13.662;2022-09-27T19:14:31;3.78;;;0.73;;
32746;SDS011;19118;50.860;13.662;2022-09-27T19:19:32;1.63;;;0.77;;
32746;SDS011;19118;50.860;13.662;2022-09-27T19:24:32;2.47;;;0.90;;
32746;SDS011;19118;50.860;13.662;2022-09-27T19:29:32;3.30;;;0.77;;
32746;SDS011;19118;50.860;13.662;2022-09-27T19:34:33;1.60;;;0.60;;
32746;SDS011;19118;50.860;13.662;2022-09-27T19:39:34;0.90;;;0.60;;
32746;SDS011;19118;50.860;13.662;2022-09-27T19:44:34;1.00;;;0.80;;
32746;SDS011;19118;50.860;13.662;2022-09-27T19:49:34;0.63;;;0.63;;
32746;SDS011;19118;50.860;13.662;2022-09-27T19:54:35;0.70;;;0.50;;
32746;SDS011;19118;50.860;13.662;2022-09-27T19:59:35;2.77;;;0.80;;
32746;SDS011;19118;50.860;13.662;2022-09-27T20:04:36;1.00;;;0.68;;
32746;SDS011;19118;50.860;13.662;2022-09-27T20:09:37;1.33;;;0.70;;
32746;SDS011;19118;50.860;13.662;2022-09-27T20:14:38;1.15;;;0.70;;
32746;SDS011;19118;50.860;13.662;2022-09-27T20:19:39;1.27;;;0.80;;
32746;SDS011;19118;50.860;13.662;2022-09-27T20:24:39;1.43;;;0.80;;
32746;SDS011;19118;50.860;13.662;2022-09-27T20:29:40;2.07;;;1.00;;
32746;SDS011;19118;50.860;13.662;2022-09-27T20:34:40;2.65;;;1.15;;
32746;SDS011;19118;50.860;13.662;2022-09-27T20:39:41;1.70;;;1.02;;
32746;SDS011;19118;50.860;13.662;2022-09-27T20:44:41;1.50;;;1.00;;
32746;SDS011;19118;50.860;13.662;2022-09-27T20:49:41;1.90;;;1.07;;
32746;SDS011;19118;50.860;13.662;2022-09-27T20:54:42;3.00;;;1.27;;
32746;SDS011;19118;50.860;13.662;2022-09-27T20:59:42;1.38;;;0.93;;
32746;SDS011;19118;50.860;13.662;2022-09-27T21:04:42;3.07;;;1.00;;
32746;SDS011;19118;50.860;13.662;2022-09-27T21:09:43;1.83;;;1.20;;
32746;SDS011;19118;50.860;13.662;2022-09-27T21:14:43;2.92;;;0.98;;
32746;SDS011;19118;50.860;13.662;2022-09-27T21:19:43;3.50;;;0.93;;
32746;SDS011;19118;50.860;13.662;2022-09-27T21:24:44;1.73;;;0.90;;
32746;SDS011;19118;50.860;13.662;2022-09-27T21:29:44;1.87;;;1.00;;
32746;SDS011;19118;50.860;13.662;2022-09-27T21:34:44;2.40;;;1.13;;
32746;SDS011;19118;50.860;13.662;2022-09-27T21:39:45;1.53;;;0.90;;
32746;SDS011;19118;50.860;13.662;2022-09-27T21:44:45;1.27;;;0.90;;
32746;SDS011;19118;50.860;13.662;2022-09-27T21:49:45;2.70;;;1.43;;
32746;SDS011;19118;50.860;13.662;2022-09-27T21:54:46;2.07;;;0.90;;
32746;SDS011;19118;50.860;13.662;2022-09-27T21:59:46;2.80;;;0.90;;
32746;SDS011;19118;50.860;13.662;2022-09-27T22:04:46;1.20;;;0.77;;
32746;SDS011;19118;50.860;13.662;2022-09-27T22:09:48;1.75;;;1.10;;
32746;SDS011;19118;50.860;13.662;2022-09-27T22:14:48;2.23;;;0.80;;
32746;SDS011;19118;50.860;13.662;2022-09-27T22:19:49;1.20;;;0.80;;
32746;SDS011;19118;50.860;13.662;2022-09-27T22:24:49;4.33;;;1.03;;
32746;SDS011;19118;50.860;13.662;2022-09-27T22:29:49;0.90;;;0.77;;
32746;SDS011;19118;50.860;13.662;2022-09-27T22:34:49;5.53;;;1.33;;
32746;SDS011;19118;50.860;13.662;2022-09-27T22:39:50;1.55;;;0.82;;
32746;SDS011;19118;50.860;13.662;2022-09-27T22:44:50;4.88;;;0.90;;
32746;SDS011;19118;50.860;13.662;2022-09-27T22:49:51;0.60;;;0.60;;
32746;SDS011;19118;50.860;13.662;2022-09-27T22:54:51;1.90;;;0.60;;
32746;SDS011;19118;50.860;13.662;2022-09-27T22:59:51;1.10;;;0.60;;
32746;SDS011;19118;50.860;13.662;2022-09-27T23:04:52;1.52;;;0.63;;
32746;SDS011;19118;50.860;13.662;2022-09-27T23:09:54;0.63;;;0.45;;
32746;SDS011;19118;50.860;13.662;2022-09-27T23:14:54;0.77;;;0.60;;
32746;SDS011;19118;50.860;13.662;2022-09-27T23:19:56;1.20;;;0.77;;
32746;SDS011;19118;50.860;13.662;2022-09-27T23:24:56;1.50;;;0.40;;
32746;SDS011;19118;50.860;13.662;2022-09-27T23:29:56;0.80;;;0.63;;
32746;SDS011;19118;50.860;13.662;2022-09-27T23:34:57;0.83;;;0.50;;
32746;SDS011;19118;50.860;13.662;2022-09-27T23:39:57;1.35;;;0.70;;
32746;SDS011;19118;50.860;13.662;2022-09-27T23:44:57;1.50;;;0.60;;
32746;SDS011;19118;50.860;13.662;2022-09-27T23:49:58;1.05;;;0.40;;
32746;SDS011;19118;50.860;13.662;2022-09-27T23:54:58;1.50;;;0.67;;
32746;SDS011;19118;50.860;13.662;2022-09-27T23:59:58;1.80;;;0.60;;
